Time;durP1;ratioP1;P1;durP2;ratioP2;P2;SDS_P1;SDS_P2;PMS_P1;PMS_P2;Temp;Humidity;BMP_temperature;BMP_pressure;BME280_temperature;BME280_humidity;BME280_pressure;Samples;Min_cycle;Max_cycle;Signal;HPM_P1;HPM_P2
2022/12/20 00:01:25;;;;;;;195.60;51.63;;;-2.70;99.90;;;;;;5048967;28;20053;-53
2022/12/20 00:03:53;;;;;;;205.45;49.30;;;-2.70;99.90;;;;;;5049266;28;20029;-52
2022/12/20 00:06:20;;;;;;;133.27;52.85;;;-2.70;99.90;;;;;;5048957;28;20069;-49
2022/12/20 00:08:46;;;;;;;137.15;49.53;;;-2.70;99.90;;;;;;5049033;28;20056;-51
2022/12/20 00:11:12;;;;;;;176.55;50.22;;;-2.70;99.90;;;;;;5048862;28;20059;-51
2022/12/20 00:13:38;;;;;;;144.20;49.70;;;-2.60;99.90;;;;;;5048099;28;20049;-51
2022/12/20 00:16:12;;;;;;;137.10;51.70;;;-2.70;99.90;;;;;;5048128;28;20029;-55
2022/12/20 00:18:39;;;;;;;184.75;52.47;;;-2.60;99.90;;;;;;5048216;28;20040;-49
2022/12/20 00:21:08;;;;;;;121.50;52.05;;;-2.70;99.90;;;;;;5047956;28;20037;-50
2022/12/20 00:23:35;;;;;;;121.85;51.90;;;-2.70;99.90;;;;;;5048122;28;20116;-53
2022/12/20 00:26:05;;;;;;;144.30;52.33;;;-2.70;99.90;;;;;;5046785;28;20383;-50
2022/12/20 00:28:32;;;;;;;153.70;51.28;;;-2.60;99.90;;;;;;5047831;28;20475;-49
2022/12/20 00:30:58;;;;;;;134.27;51.13;;;-2.60;99.90;;;;;;5047834;28;20033;-50
2022/12/20 00:33:24;;;;;;;147.88;50.92;;;-2.60;99.90;;;;;;5047804;28;20043;-54
2022/12/20 00:35:50;;;;;;;128.95;49.17;;;-2.60;99.90;;;;;;5048084;28;20140;-52
2022/12/20 00:38:16;;;;;;;140.00;50.25;;;-2.60;99.90;;;;;;5047708;28;20153;-51
2022/12/20 00:40:41;;;;;;;153.70;51.03;;;-2.50;99.90;;;;;;5046498;28;20017;-53
2022/12/20 00:43:07;;;;;;;149.20;49.65;;;-2.60;99.90;;;;;;5047635;28;20033;-49
2022/12/20 00:45:32;;;;;;;135.57;49.03;;;-2.60;99.90;;;;;;5047777;28;20149;-52
2022/12/20 00:47:58;;;;;;;141.50;51.95;;;-2.60;99.90;;;;;;5046454;28;20036;-52
2022/12/20 00:50:24;;;;;;;161.68;52.83;;;-2.60;99.90;;;;;;5046278;28;20493;-52
2022/12/20 00:52:49;;;;;;;196.52;49.95;;;-2.60;99.90;;;;;;5047618;28;20154;-54
2022/12/20 00:55:15;;;;;;;136.45;52.45;;;-2.60;99.90;;;;;;5047474;28;20492;-53
2022/12/20 00:57:41;;;;;;;144.60;51.78;;;-2.60;99.90;;;;;;5047400;28;20448;-53
2022/12/20 01:00:07;;;;;;;146.13;52.60;;;-2.60;99.90;;;;;;5047324;28;20040;-50
2022/12/20 01:02:33;;;;;;;156.90;52.58;;;-2.70;99.90;;;;;;5047396;28;20104;-50
2022/12/20 01:04:58;;;;;;;137.15;50.05;;;-2.70;99.90;;;;;;5047502;28;20111;-53
2022/12/20 01:07:24;;;;;;;173.60;53.42;;;-2.60;99.90;;;;;;5047337;28;20037;-52
2022/12/20 01:09:50;;;;;;;126.72;50.65;;;-2.60;99.90;;;;;;5047333;28;20710;-52
2022/12/20 01:12:17;;;;;;;154.90;49.92;;;-2.60;99.90;;;;;;5007493;28;1139796;-52
2022/12/20 01:14:43;;;;;;;143.60;50.92;;;-2.70;99.90;;;;;;5048106;28;20043;-53
2022/12/20 01:17:09;;;;;;;169.98;54.13;;;-2.70;99.90;;;;;;5047981;28;20055;-53
2022/12/20 01:19:36;;;;;;;149.18;53.45;;;-2.60;99.90;;;;;;5048182;28;20053;-52
2022/12/20 01:22:02;;;;;;;142.55;50.75;;;-2.70;99.90;;;;;;5048066;28;20029;-54
2022/12/20 01:24:27;;;;;;;148.77;49.72;;;-2.60;99.90;;;;;;5047891;28;20029;-52
2022/12/20 01:26:53;;;;;;;176.85;55.03;;;-2.60;99.90;;;;;;5048036;28;20162;-52
2022/12/20 01:29:19;;;;;;;152.15;50.88;;;-2.60;99.90;;;;;;5047286;28;20026;-49
2022/12/20 01:31:44;;;;;;;137.23;53.33;;;-2.60;99.90;;;;;;5047178;28;20033;-51
2022/12/20 01:34:11;;;;;;;155.35;51.70;;;-2.60;99.90;;;;;;5047269;28;20379;-52
2022/12/20 01:36:37;;;;;;;139.07;52.78;;;-2.60;99.90;;;;;;5047385;28;20053;-53
2022/12/20 01:39:07;;;;;;;127.85;52.15;;;-2.60;99.90;;;;;;5047033;28;20094;-52
2022/12/20 01:41:34;;;;;;;137.25;53.75;;;-2.60;99.90;;;;;;5045550;28;20029;-51
2022/12/20 01:44:05;;;;;;;138.77;55.20;;;-2.60;99.90;;;;;;5047086;28;20025;-54
2022/12/20 01:46:35;;;;;;;118.18;50.53;;;-2.60;99.90;;;;;;5047512;28;20025;-50
2022/12/20 01:49:12;;;;;;;117.53;47.30;;;-2.60;99.90;;;;;;5047751;28;20462;-54
2022/12/20 01:51:45;;;;;;;109.43;48.85;;;-2.50;99.90;;;;;;5047607;28;20380;-49
2022/12/20 01:54:19;;;;;;;117.30;48.28;;;-2.50;99.90;;;;;;5047703;28;20036;-54
2022/12/20 01:56:47;;;;;;;;;;;-2.50;99.90;;;;;;5047187;28;20076;-52
2022/12/20 01:59:13;;;;;;;117.57;48.35;;;-2.50;99.90;;;;;;5048787;28;19912;-54
2022/12/20 02:01:41;;;;;;;115.03;50.88;;;-2.50;99.90;;;;;;5051058;28;20081;-51
2022/12/20 02:04:06;;;;;;;121.50;53.40;;;-2.60;99.90;;;;;;5050776;28;20097;-50
2022/12/20 02:06:32;;;;;;;118.63;50.65;;;-2.50;99.90;;;;;;5051019;28;20029;-53
2022/12/20 02:09:01;;;;;;;109.47;48.55;;;-2.50;99.90;;;;;;5050840;28;20112;-52
2022/12/20 02:11:56;;;;;;;103.05;47.58;;;-2.50;99.90;;;;;;5050659;28;20025;-53
2022/12/20 02:14:22;;;;;;;115.65;50.60;;;-2.50;99.90;;;;;;5050232;28;20049;-54
2022/12/20 02:17:20;;;;;;;93.38;42.65;;;-2.40;99.90;;;;;;5050732;28;20372;-52
2022/12/20 02:20:00;;;;;;;95.63;44.58;;;-2.40;99.90;;;;;;5024646;28;20161;-51
2022/12/20 02:22:51;;;;;;;95.75;45.72;;;-2.40;99.90;;;;;;5050623;28;20028;-51
2022/12/20 02:25:49;;;;;;;96.50;42.63;;;-2.30;99.90;;;;;;5050548;28;20070;-53
2022/12/20 02:28:20;;;;;;;101.35;43.58;;;-2.40;99.90;;;;;;5050500;28;20069;-52
2022/12/20 02:30:49;;;;;;;87.75;40.22;;;-2.40;99.90;;;;;;5049329;28;20032;-51
2022/12/20 02:33:18;;;;;;;110.93;43.72;;;-2.40;99.90;;;;;;5049150;28;20541;-50
2022/12/20 02:35:44;;;;;;;111.00;44.08;;;-2.40;99.90;;;;;;5050559;28;20033;-53
2022/12/20 02:38:34;;;;;;;100.32;44.97;;;-2.40;99.90;;;;;;5050377;28;20040;-53
2022/12/20 02:41:09;;;;;;;97.97;44.90;;;-2.40;99.90;;;;;;5050438;28;20025;-50
2022/12/20 02:46:25;;;;;;;98.57;44.40;;;-2.40;99.90;;;;;;5050644;28;20036;-52
2022/12/20 02:48:54;;;;;;;101.25;42.17;;;-2.40;99.90;;;;;;5050073;28;20145;-51
2022/12/20 02:51:22;;;;;;;115.97;44.83;;;-2.30;99.90;;;;;;5050216;28;20070;-51
2022/12/20 02:53:48;;;;;;;123.05;46.28;;;-2.40;99.90;;;;;;5050197;28;20005;-52
2022/12/20 02:56:37;;;;;;;113.38;47.22;;;-2.30;99.90;;;;;;5049976;28;20029;-53
2022/12/20 02:59:06;;;;;;;113.57;48.03;;;-2.30;99.90;;;;;;5050144;28;20021;-54
2022/12/20 03:01:40;;;;;;;104.47;44.50;;;-2.40;99.90;;;;;;5050193;28;20052;-49
2022/12/20 03:04:06;;;;;;;;;;;-2.30;99.90;;;;;;5050333;28;20120;-52
2022/12/20 03:06:32;;;;;;;105.35;45.45;;;-2.30;99.90;;;;;;5050065;28;19909;-54
2022/12/20 03:08:58;;;;;;;115.53;47.20;;;-2.40;99.90;;;;;;5049914;28;20044;-53
2022/12/20 03:11:24;;;;;;;117.53;45.92;;;-2.30;99.90;;;;;;5048773;28;20017;-52
2022/12/20 03:13:50;;;;;;;116.70;49.20;;;-2.30;99.90;;;;;;5049752;28;20041;-53
2022/12/20 03:16:15;;;;;;;119.38;50.95;;;-2.30;99.90;;;;;;5049804;28;20057;-52
2022/12/20 03:18:41;;;;;;;122.07;48.83;;;-2.30;99.90;;;;;;5049887;28;20543;-54
2022/12/20 03:21:07;;;;;;;100.93;44.58;;;-2.30;99.90;;;;;;5049754;28;20040;-54
2022/12/20 03:23:33;;;;;;;116.00;46.15;;;-2.30;99.90;;;;;;5049842;28;20112;-51
2022/12/20 03:25:58;;;;;;;115.97;46.15;;;-2.30;99.90;;;;;;5049807;28;20033;-52
2022/12/20 03:28:24;;;;;;;126.20;46.10;;;-2.30;99.90;;;;;;5049580;28;20036;-52
2022/12/20 03:30:49;;;;;;;110.55;45.30;;;-2.30;99.90;;;;;;5049705;28;20029;-50
2022/12/20 03:33:15;;;;;;;105.13;43.67;;;-2.30;99.90;;;;;;5049553;28;20028;-52
2022/12/20 03:35:41;;;;;;;99.25;41.22;;;-2.30;99.90;;;;;;5049640;28;20097;-53
2022/12/20 03:38:07;;;;;;;127.65;48.67;;;-2.30;99.90;;;;;;5049351;28;20017;-52
2022/12/20 03:40:33;;;;;;;111.50;45.15;;;-2.30;99.90;;;;;;5049670;28;20043;-55
2022/12/20 03:42:58;;;;;;;108.70;44.97;;;-2.30;99.90;;;;;;5049538;28;20036;-53
2022/12/20 03:45:24;;;;;;;101.82;46.08;;;-2.30;99.90;;;;;;5049247;28;20403;-51
2022/12/20 03:47:50;;;;;;;141.52;45.92;;;-2.30;99.90;;;;;;5049326;28;20111;-55
2022/12/20 03:50:16;;;;;;;121.00;45.13;;;-2.40;99.90;;;;;;5049100;28;20022;-55
2022/12/20 03:52:41;;;;;;;140.48;46.00;;;-2.40;99.90;;;;;;5049174;28;20033;-54
2022/12/20 03:55:08;;;;;;;130.38;49.92;;;-2.30;99.90;;;;;;5049240;28;20059;-55
2022/12/20 03:57:34;;;;;;;128.55;50.83;;;-2.30;99.90;;;;;;5047875;28;20112;-53
2022/12/20 04:00:00;;;;;;;132.77;49.25;;;-2.40;99.90;;;;;;5049316;28;20036;-55
2022/12/20 04:02:26;;;;;;;170.32;50.53;;;-2.40;99.90;;;;;;5047660;28;20036;-52
2022/12/20 04:04:51;;;;;;;138.32;48.05;;;-2.40;99.90;;;;;;5049169;28;20029;-53
2022/12/20 04:07:17;;;;;;;183.90;47.00;;;-2.30;99.90;;;;;;5048977;28;20041;-50
2022/12/20 04:09:43;;;;;;;176.80;46.45;;;-2.30;99.90;;;;;;5048886;28;20021;-51
2022/12/20 04:12:08;;;;;;;208.25;48.67;;;-2.40;99.90;;;;;;5047245;28;20455;-52
2022/12/20 04:14:36;;;;;;;169.13;46.85;;;-2.40;99.90;;;;;;5047639;28;20029;-52
2022/12/20 04:17:02;;;;;;;136.10;49.08;;;-2.40;99.90;;;;;;5048916;28;20021;-51
2022/12/20 04:19:27;;;;;;;195.73;49.00;;;-2.40;99.90;;;;;;5048657;28;20120;-52
2022/12/20 04:21:55;;;;;;;246.80;52.33;;;-2.40;99.90;;;;;;5048524;28;20029;-52
2022/12/20 04:24:21;;;;;;;160.38;50.05;;;-2.40;99.90;;;;;;5048971;28;20131;-53
2022/12/20 04:26:48;;;;;;;191.88;50.78;;;-2.30;99.90;;;;;;5048943;28;20048;-51
2022/12/20 04:29:14;;;;;;;222.77;50.22;;;-2.30;99.90;;;;;;5048637;28;20029;-50
2022/12/20 04:31:40;;;;;;;185.05;49.70;;;-2.30;99.90;;;;;;5048816;28;20021;-55
2022/12/20 04:34:05;;;;;;;180.02;47.22;;;-2.30;99.90;;;;;;5048587;28;20026;-53
2022/12/20 04:36:31;;;;;;;174.95;49.28;;;-2.30;99.90;;;;;;5048596;28;20032;-53
2022/12/20 04:38:56;;;;;;;187.18;50.40;;;-2.30;99.90;;;;;;5048727;28;20029;-57
2022/12/20 04:41:22;;;;;;;207.18;48.60;;;-2.30;99.90;;;;;;5048507;28;20073;-55
2022/12/20 04:43:53;;;;;;;100.70;46.05;;;-2.30;99.90;;;;;;5048609;28;20025;-54
2022/12/20 04:46:19;;;;;;;154.88;47.90;;;-2.30;99.90;;;;;;5048520;28;20048;-53
2022/12/20 04:48:45;;;;;;;135.88;46.35;;;-2.40;99.90;;;;;;5048381;28;20495;-53
2022/12/20 04:51:11;;;;;;;168.48;48.67;;;-2.40;99.90;;;;;;5048260;28;20022;-54
2022/12/20 04:53:49;;;;;;;102.75;44.80;;;-2.40;99.90;;;;;;5048571;28;20021;-52
2022/12/20 04:56:29;;;;;;;164.32;49.38;;;-2.40;99.90;;;;;;5047077;28;20040;-51
2022/12/20 04:58:56;;;;;;;166.77;47.88;;;-2.30;99.90;;;;;;5048460;28;20096;-53
2022/12/20 05:01:22;;;;;;;255.73;48.10;;;-2.30;99.90;;;;;;5048216;28;20017;-55
2022/12/20 05:03:48;;;;;;;291.63;51.72;;;-2.40;99.90;;;;;;5048281;28;20028;-51
2022/12/20 05:06:14;;;;;;;216.70;48.58;;;-2.40;99.90;;;;;;5048265;28;20029;-53
2022/12/20 05:08:40;;;;;;;256.38;49.05;;;-2.40;99.90;;;;;;5048305;28;20033;-53
2022/12/20 05:11:07;;;;;;;312.38;52.15;;;-2.40;99.90;;;;;;5048258;28;20017;-54
2022/12/20 05:13:33;;;;;;;192.90;48.60;;;-2.40;99.90;;;;;;5047988;28;20052;-52
2022/12/20 05:15:59;;;;;;;277.20;54.15;;;-2.40;99.90;;;;;;5048252;28;20035;-51
2022/12/20 05:18:25;;;;;;;368.10;57.83;;;-2.40;99.90;;;;;;5047990;28;20108;-56
2022/12/20 05:26:24;;;;;;;148.93;50.33;;;-2.40;99.90;;;;;;5047725;28;20047;-54
2022/12/20 05:28:49;;;;;;;166.52;51.70;;;-2.40;99.90;;;;;;5047578;28;20507;-55
2022/12/20 05:31:15;;;;;;;284.27;52.85;;;-2.40;99.90;;;;;;5046309;28;20104;-52
2022/12/20 05:33:41;;;;;;;272.60;52.85;;;-2.40;99.90;;;;;;5048169;28;20021;-53
2022/12/20 05:36:06;;;;;;;299.17;52.25;;;-2.40;99.90;;;;;;5051376;28;20025;-54
2022/12/20 05:38:32;;;;;;;173.38;48.83;;;-2.50;99.90;;;;;;5051315;28;20021;-55
2022/12/20 05:40:58;;;;;;;230.70;52.53;;;-2.40;99.90;;;;;;5051188;28;20094;-53
2022/12/20 05:43:23;;;;;;;230.95;52.38;;;-2.50;99.90;;;;;;5050771;28;20150;-53
2022/12/20 05:45:51;;;;;;;296.50;50.42;;;-2.50;99.90;;;;;;5050626;28;20029;-53
2022/12/20 05:48:19;;;;;;;184.13;53.03;;;-2.50;99.90;;;;;;5049181;28;20476;-51
2022/12/20 05:50:45;;;;;;;123.95;47.33;;;-2.50;99.90;;;;;;5049941;28;20467;-52
2022/12/20 05:53:12;;;;;;;269.00;53.83;;;-2.40;99.90;;;;;;5049212;28;20025;-54
2022/12/20 05:55:42;;;;;;;228.98;51.75;;;-2.50;99.90;;;;;;5049960;28;20021;-54
2022/12/20 05:58:08;;;;;;;247.35;52.40;;;-2.40;99.90;;;;;;5049721;28;20017;-55
2022/12/20 06:00:33;;;;;;;269.90;56.88;;;-2.40;99.90;;;;;;5049764;28;20128;-55
2022/12/20 06:02:59;;;;;;;182.15;51.10;;;-2.50;99.90;;;;;;5049927;28;20096;-52
2022/12/20 06:05:25;;;;;;;113.60;47.53;;;-2.50;99.90;;;;;;5049745;28;20029;-52
2022/12/20 06:07:50;;;;;;;133.32;50.38;;;-2.50;99.90;;;;;;5049689;28;20460;-54
2022/12/20 06:10:16;;;;;;;124.60;46.70;;;-2.40;99.90;;;;;;5049474;28;20081;-50
2022/12/20 06:12:42;;;;;;;158.68;50.80;;;-2.40;99.90;;;;;;5049461;28;20348;-56
2022/12/20 06:15:08;;;;;;;186.52;53.28;;;-2.40;99.90;;;;;;5049731;28;20017;-52
2022/12/20 06:17:34;;;;;;;200.25;54.17;;;-2.50;99.90;;;;;;5049433;28;20429;-52
2022/12/20 06:19:59;;;;;;;279.60;56.15;;;-2.50;99.90;;;;;;5049402;28;20028;-53
2022/12/20 06:22:25;;;;;;;170.20;52.13;;;-2.50;99.90;;;;;;5047948;28;20029;-57
2022/12/20 06:24:51;;;;;;;170.82;53.60;;;-2.50;99.90;;;;;;5049532;28;20049;-51
2022/12/20 06:27:17;;;;;;;127.50;49.05;;;-2.50;99.90;;;;;;5049367;28;20036;-55
2022/12/20 06:29:50;;;;;;;114.80;47.35;;;-2.50;99.90;;;;;;5049425;28;20029;-56
2022/12/20 06:32:16;;;;;;;97.07;43.10;;;-2.50;99.90;;;;;;5049332;28;20028;-52
2022/12/20 06:34:43;;;;;;;105.90;43.83;;;-2.60;99.90;;;;;;5049223;28;20112;-53
2022/12/20 06:37:09;;;;;;;103.90;44.72;;;-2.60;99.90;;;;;;5049134;28;20096;-50
2022/12/20 06:39:34;;;;;;;100.05;44.13;;;-2.60;99.90;;;;;;5047989;28;20453;-54
2022/12/20 06:42:00;;;;;;;145.73;50.63;;;-2.60;99.90;;;;;;5049289;28;20028;-52
2022/12/20 06:44:25;;;;;;;95.75;43.78;;;-2.60;99.90;;;;;;5048938;28;20399;-54
2022/12/20 06:46:51;;;;;;;93.32;40.78;;;-2.60;99.90;;;;;;5049151;28;20021;-54
2022/12/20 06:49:17;;;;;;;101.25;44.33;;;-2.60;99.90;;;;;;5049011;28;20025;-49
2022/12/20 06:51:42;;;;;;;88.22;41.60;;;-2.60;99.90;;;;;;5049028;28;20025;-51
2022/12/20 06:54:08;;;;;;;103.97;43.83;;;-2.60;99.90;;;;;;5048796;28;20241;-53
2022/12/20 06:56:34;;;;;;;87.82;39.88;;;-2.60;99.90;;;;;;5048849;28;20064;-55
2022/12/20 06:59:00;;;;;;;91.28;42.47;;;-2.60;99.90;;;;;;5049026;28;20024;-56
2022/12/20 07:01:25;;;;;;;97.07;43.28;;;-2.60;99.90;;;;;;5048868;28;20531;-54
2022/12/20 07:03:51;;;;;;;91.55;42.80;;;-2.60;99.90;;;;;;5048871;28;20025;-56
2022/12/20 07:06:16;;;;;;;91.53;42.83;;;-2.50;99.90;;;;;;5048659;28;20162;-54
2022/12/20 07:08:42;;;;;;;107.78;41.63;;;-2.50;99.90;;;;;;5048740;28;20048;-52
2022/12/20 07:11:08;;;;;;;106.82;42.28;;;-2.50;99.90;;;;;;5048746;28;20075;-51
2022/12/20 07:13:34;;;;;;;105.80;46.28;;;-2.60;99.90;;;;;;5048665;28;20563;-56
2022/12/20 07:16:01;;;;;;;154.02;47.78;;;-2.50;99.90;;;;;;5048678;28;20028;-54
2022/12/20 07:18:27;;;;;;;155.73;43.78;;;-2.60;99.90;;;;;;5048816;28;20014;-51
2022/12/20 07:20:53;;;;;;;99.70;43.40;;;-2.50;99.90;;;;;;5048615;28;20100;-54
2022/12/20 07:23:18;;;;;;;173.43;47.10;;;-2.50;99.90;;;;;;5047115;28;20399;-55
2022/12/20 07:25:53;;;;;;;226.18;47.35;;;-2.50;99.90;;;;;;5048632;28;20387;-56
2022/12/20 07:28:18;;;;;;;146.52;45.53;;;-2.50;99.90;;;;;;5048292;28;20020;-54
2022/12/20 07:30:44;;;;;;;180.45;50.55;;;-2.40;99.90;;;;;;5048420;28;20100;-55
2022/12/20 07:33:09;;;;;;;117.90;46.05;;;-2.50;99.90;;;;;;5048449;28;20076;-53
2022/12/20 07:35:35;;;;;;;176.45;46.03;;;-2.40;99.90;;;;;;5048312;28;20052;-52
2022/12/20 07:38:01;;;;;;;140.07;47.53;;;-2.40;99.90;;;;;;5048362;28;20384;-54
2022/12/20 07:40:26;;;;;;;147.35;47.53;;;-2.40;99.90;;;;;;5048414;28;20532;-54
2022/12/20 07:42:52;;;;;;;152.77;46.83;;;-2.30;99.90;;;;;;5048344;28;20025;-52
2022/12/20 07:45:17;;;;;;;195.48;54.20;;;-2.20;99.90;;;;;;5048220;28;20025;-52
2022/12/20 07:47:43;;;;;;;141.07;50.42;;;-2.20;99.90;;;;;;5048332;28;20024;-50
2022/12/20 07:50:09;;;;;;;153.32;48.03;;;-2.10;99.90;;;;;;5047966;28;20039;-55
2022/12/20 07:52:38;;;;;;;164.63;48.97;;;-2.00;99.90;;;;;;5047971;28;20021;-51
2022/12/20 07:55:07;;;;;;;161.60;48.10;;;-2.10;99.90;;;;;;5046757;28;20373;-54
2022/12/20 07:57:45;;;;;;;164.77;47.72;;;-2.00;99.90;;;;;;5047552;28;20017;-53
2022/12/20 08:00:12;;;;;;;122.68;44.58;;;-2.00;99.90;;;;;;5048008;28;20025;-52
2022/12/20 08:03:10;;;;;;;122.03;44.72;;;-2.00;99.90;;;;;;5047938;28;20017;-56
2022/12/20 08:05:39;;;;;;;200.25;46.60;;;-1.80;99.90;;;;;;5046386;28;20044;-53
2022/12/20 08:08:06;;;;;;;133.32;44.42;;;-1.90;99.90;;;;;;5047759;28;20032;-52
2022/12/20 08:10:31;;;;;;;131.25;58.60;;;-1.90;99.90;;;;;;5047911;28;20025;-54
2022/12/20 08:12:58;;;;;;;103.25;44.00;;;-1.80;99.90;;;;;;5047594;28;20045;-51
2022/12/20 08:15:25;;;;;;;116.20;42.03;;;-1.70;99.90;;;;;;5047527;28;20103;-52
2022/12/20 08:17:50;;;;;;;104.93;41.22;;;-1.80;99.90;;;;;;5047715;28;20029;-54
2022/12/20 08:20:16;;;;;;;104.88;41.03;;;-1.70;99.90;;;;;;5047680;28;20048;-52
2022/12/20 08:22:42;;;;;;;119.57;42.47;;;-1.60;99.90;;;;;;5047667;28;20025;-56
2022/12/20 08:25:08;;;;;;;166.63;43.92;;;-1.60;99.90;;;;;;5047472;28;20540;-51
2022/12/20 08:27:34;;;;;;;291.05;48.13;;;-1.60;99.90;;;;;;5047491;28;20021;-54
2022/12/20 08:30:00;;;;;;;246.65;47.33;;;-1.60;99.90;;;;;;5047568;28;20036;-54
2022/12/20 08:32:25;;;;;;;218.38;45.03;;;-1.60;99.90;;;;;;5047390;28;20029;-54
2022/12/20 08:34:52;;;;;;;232.50;44.53;;;-1.50;99.90;;;;;;5046073;28;20036;-51
2022/12/20 08:37:18;;;;;;;135.93;43.45;;;-1.60;99.90;;;;;;5047093;28;20026;-55
2022/12/20 08:39:44;;;;;;;112.55;40.65;;;-1.60;99.90;;;;;;5047261;28;20595;-54
2022/12/20 08:42:10;;;;;;;194.05;40.47;;;-1.50;99.90;;;;;;5047293;28;20487;-55
2022/12/20 08:44:36;;;;;;;164.48;42.38;;;-1.50;99.90;;;;;;5047506;28;20116;-55
2022/12/20 08:47:01;;;;;;;116.10;39.63;;;-1.40;99.90;;;;;;5047393;28;20100;-55
2022/12/20 08:49:27;;;;;;;90.95;39.50;;;-1.40;99.90;;;;;;5047048;28;20338;-51
2022/12/20 08:51:53;;;;;;;88.85;37.45;;;-1.30;99.90;;;;;;5047156;28;20025;-53
2022/12/20 08:54:19;;;;;;;141.13;37.88;;;-1.20;99.90;;;;;;5047165;28;20028;-51
2022/12/20 08:56:44;;;;;;;109.05;37.42;;;-1.30;99.90;;;;;;5047280;28;20077;-56
2022/12/20 08:59:10;;;;;;;109.97;39.15;;;-1.20;99.90;;;;;;5047131;28;20029;-53
2022/12/20 09:01:35;;;;;;;102.50;37.80;;;-1.10;99.90;;;;;;5047249;28;20029;-52
2022/12/20 09:04:02;;;;;;;99.25;48.95;;;-1.00;99.90;;;;;;5047361;28;20028;-54
2022/12/20 09:06:29;;;;;;;210.90;52.30;;;-0.80;99.90;;;;;;5047054;28;20386;-51
2022/12/20 09:08:54;;;;;;;210.52;88.47;;;-0.90;99.90;;;;;;5047845;28;20053;-53
2022/12/20 09:11:23;;;;;;;151.52;53.80;;;-0.90;99.90;;;;;;5050420;28;20067;-51
2022/12/20 09:13:50;;;;;;;196.93;39.58;;;-1.00;99.90;;;;;;5050382;28;20419;-53
2022/12/20 09:16:19;;;;;;;160.70;36.67;;;-1.00;99.90;;;;;;5049230;28;20029;-50
2022/12/20 09:18:53;;;;;;;135.63;39.60;;;-0.90;99.90;;;;;;5050662;28;20030;-51
2022/12/20 09:21:19;;;;;;;160.88;39.88;;;-0.90;99.90;;;;;;5050535;28;20116;-52
2022/12/20 09:23:45;;;;;;;167.18;37.63;;;-0.90;99.90;;;;;;5050848;28;20320;-51
2022/12/20 09:26:12;;;;;;;79.70;34.65;;;-1.00;99.90;;;;;;5050271;28;20100;-52
2022/12/20 09:28:38;;;;;;;103.32;35.78;;;-0.80;99.90;;;;;;5050094;28;20220;-52
2022/12/20 09:31:06;;;;;;;111.47;39.78;;;-0.60;99.90;;;;;;5050339;28;20040;-53
2022/12/20 09:33:33;;;;;;;121.95;40.95;;;-0.50;99.90;;;;;;5050405;28;20033;-53
2022/12/20 09:36:00;;;;;;;155.32;39.85;;;-0.60;99.90;;;;;;5050337;28;20165;-52
2022/12/20 09:38:27;;;;;;;173.18;42.05;;;-0.60;99.90;;;;;;5050061;28;20033;-54
2022/12/20 09:40:57;;;;;;;229.55;40.72;;;-0.60;99.90;;;;;;5050160;28;20373;-54
2022/12/20 09:43:23;;;;;;;152.73;39.08;;;-0.60;99.90;;;;;;5050155;28;20042;-54
2022/12/20 09:45:55;;;;;;;83.53;35.40;;;-0.50;99.90;;;;;;5050241;28;20120;-51
2022/12/20 09:48:43;;;;;;;67.82;33.15;;;-0.30;99.90;;;;;;5050049;28;20369;-52
2022/12/20 09:51:09;;;;;;;93.95;34.97;;;0.10;99.90;;;;;;5049357;28;20053;-53
2022/12/20 09:53:46;;;;;;;91.43;35.78;;;0.10;99.90;;;;;;5050120;28;20040;-55
2022/12/20 09:56:25;;;;;;;75.28;39.17;;;0.10;99.90;;;;;;5049891;28;20022;-53
2022/12/20 09:58:58;;;;;;;81.07;34.75;;;0.20;99.90;;;;;;5048629;28;20162;-52
2022/12/20 10:01:27;;;;;;;105.00;50.50;;;0.20;99.90;;;;;;5049780;28;20479;-52
2022/12/20 10:03:55;;;;;;;90.13;39.72;;;0.10;99.90;;;;;;5049936;28;20029;-54
2022/12/20 10:06:53;;;;;;;88.55;38.80;;;0.20;99.90;;;;;;5048274;28;20036;-51
2022/12/20 10:09:37;;;;;;;102.97;33.08;;;0.10;99.90;;;;;;5049663;28;20412;-53
2022/12/20 10:12:33;;;;;;;69.00;31.83;;;0.10;99.90;;;;;;5049622;28;20105;-54
2022/12/20 10:15:19;;;;;;;78.13;31.65;;;0.00;99.90;;;;;;5049652;28;20018;-53
2022/12/20 10:18:07;;;;;;;110.55;32.03;;;-0.10;99.90;;;;;;5049623;28;20032;-53
2022/12/20 10:20:51;;;;;;;120.82;36.63;;;-0.30;99.90;;;;;;5048861;28;20036;-55
2022/12/20 10:23:27;;;;;;;97.18;35.58;;;-0.40;99.90;;;;;;5049608;28;20158;-51
2022/12/20 10:25:55;;;;;;;64.65;30.70;;;-0.40;99.90;;;;;;5050119;28;20384;-53
2022/12/20 10:28:29;;;;;;;66.47;30.95;;;-0.40;99.90;;;;;;5049324;28;20474;-52
2022/12/20 10:31:02;;;;;;;77.47;32.75;;;-0.50;99.90;;;;;;5048163;28;20025;-52
2022/12/20 10:33:30;;;;;;;77.53;31.98;;;-0.40;99.90;;;;;;5047988;28;20391;-51
2022/12/20 10:36:18;;;;;;;76.95;35.10;;;-0.40;99.90;;;;;;5049299;28;20014;-54
2022/12/20 10:38:47;;;;;;;76.10;34.67;;;-0.50;99.90;;;;;;5047934;28;20357;-52
2022/12/20 10:41:22;;;;;;;71.18;32.53;;;-0.40;99.90;;;;;;5049201;28;20384;-56
2022/12/20 10:44:19;;;;;;;99.07;33.05;;;-0.50;99.90;;;;;;5048275;28;20025;-52
2022/12/20 10:46:56;;;;;;;89.72;34.30;;;-0.50;99.90;;;;;;5038235;28;20035;-55
2022/12/20 10:49:38;;;;;;;81.00;32.88;;;-0.50;99.90;;;;;;5048884;28;20021;-54
2022/12/20 10:52:06;;;;;;;85.80;33.08;;;-0.50;99.90;;;;;;5048815;28;20436;-55
2022/12/20 10:54:38;;;;;;;97.25;36.58;;;-0.60;99.90;;;;;;5049117;28;20025;-53
2022/12/20 10:57:21;;;;;;;134.95;36.80;;;-0.70;99.90;;;;;;5049067;28;20072;-54
2022/12/20 10:59:56;;;;;;;160.13;35.97;;;-0.80;99.90;;;;;;5048983;28;20392;-52
2022/12/20 11:02:32;;;;;;;140.05;36.38;;;-0.90;99.90;;;;;;5049043;28;20347;-53
2022/12/20 11:05:05;;;;;;;94.20;39.40;;;-0.80;99.90;;;;;;5048939;28;20033;-51
2022/12/20 11:07:32;;;;;;;114.97;39.40;;;-0.80;99.90;;;;;;5048898;28;20033;-50
2022/12/20 11:10:01;;;;;;;127.18;38.15;;;-0.70;99.90;;;;;;5048595;28;20029;-54
2022/12/20 11:12:26;;;;;;;108.60;38.90;;;-0.70;99.90;;;;;;5048363;28;20104;-50
2022/12/20 11:15:08;;;;;;;106.97;38.95;;;-0.70;99.90;;;;;;5048794;28;20282;-53
2022/12/20 11:17:45;;;;;;;105.93;41.80;;;-0.60;99.90;;;;;;5048715;28;20092;-53
2022/12/20 11:20:20;;;;;;;93.53;38.53;;;-0.60;99.90;;;;;;5048597;28;20017;-52
2022/12/20 11:22:57;;;;;;;92.38;40.47;;;-0.60;99.90;;;;;;5048655;28;20112;-53
2022/12/20 11:25:41;;;;;;;85.40;36.97;;;-0.50;99.90;;;;;;5048503;28;20035;-54
2022/12/20 11:28:09;;;;;;;89.95;37.88;;;-0.50;99.90;;;;;;5047181;28;20033;-53
2022/12/20 11:31:08;;;;;;;90.38;35.70;;;-0.50;99.90;;;;;;5048364;28;20392;-53
2022/12/20 11:33:52;;;;;;;78.15;36.75;;;-0.40;99.90;;;;;;5048088;28;20021;-53
2022/12/20 11:36:39;;;;;;;90.95;41.42;;;-0.20;99.90;;;;;;5048182;28;20020;-54
2022/12/20 11:39:08;;;;;;;101.80;35.97;;;-0.10;99.90;;;;;;5048030;28;20036;-54
2022/12/20 11:41:50;;;;;;;77.75;36.97;;;-0.10;99.90;;;;;;5048243;28;20035;-56
2022/12/20 11:44:22;;;;;;;76.80;33.90;;;-0.10;99.90;;;;;;5048074;28;20029;-53
2022/12/20 11:47:09;;;;;;;82.43;38.03;;;-0.10;99.90;;;;;;5048146;28;20380;-53
2022/12/20 11:49:47;;;;;;;75.50;36.17;;;0.00;99.90;;;;;;5048038;28;20021;-56
2022/12/20 11:52:25;;;;;;;87.47;38.30;;;0.00;99.90;;;;;;5046734;28;20017;-53
2022/12/20 11:55:07;;;;;;;120.20;36.63;;;-0.10;99.90;;;;;;5048036;28;20492;-51
2022/12/20 11:57:45;;;;;;;124.47;39.33;;;0.00;99.90;;;;;;5048042;28;20021;-52
2022/12/20 12:00:13;;;;;;;98.40;36.15;;;0.10;99.90;;;;;;5047854;28;20060;-54
2022/12/20 12:03:01;;;;;;;86.93;36.45;;;0.30;99.90;;;;;;5046709;28;20056;-53
2022/12/20 12:05:50;;;;;;;92.68;37.75;;;0.30;99.90;;;;;;5048212;28;20044;-52
2022/12/20 12:08:22;;;;;;;97.60;39.00;;;0.40;99.90;;;;;;5047711;28;20391;-53
2022/12/20 12:11:03;;;;;;;105.93;45.60;;;0.50;99.90;;;;;;5047747;28;20460;-57
2022/12/20 12:13:34;;;;;;;156.75;89.68;;;0.50;99.90;;;;;;5047791;28;20128;-51
2022/12/20 12:16:11;;;;;;;152.65;75.20;;;0.60;99.90;;;;;;5047769;28;20025;-57
2022/12/20 12:18:39;;;;;;;298.65;172.00;;;0.50;99.90;;;;;;5047852;28;20013;-55
2022/12/20 12:21:07;;;;;;;146.48;80.25;;;0.50;99.90;;;;;;5047859;28;20380;-53
2022/12/20 12:23:51;;;;;;;140.73;76.55;;;0.50;99.90;;;;;;5047770;28;20021;-53
2022/12/20 12:26:19;;;;;;;154.23;90.60;;;0.50;99.90;;;;;;5047602;28;20036;-53
2022/12/20 12:28:49;;;;;;;147.90;75.05;;;0.40;99.90;;;;;;5047447;28;20105;-55
2022/12/20 12:31:21;;;;;;;204.30;116.63;;;0.40;99.90;;;;;;5047341;28;20742;-55
2022/12/20 12:34:00;;;;;;;139.18;74.68;;;0.30;99.90;;;;;;5047486;28;20051;-53
2022/12/20 12:36:31;;;;;;;119.40;59.10;;;0.20;99.90;;;;;;5047306;28;20045;-54
2022/12/20 12:39:45;;;;;;;154.02;84.93;;;0.20;99.90;;;;;;5047381;28;20384;-53
2022/12/20 12:42:48;;;;;;;330.75;173.35;;;0.30;99.90;;;;;;5041757;28;20068;-54